Time;durP1;ratioP1;P1;durP2;ratioP2;P2;SDS_P1;SDS_P2;PMS_P1;PMS_P2;Temp;Humidity;BMP_temperature;BMP_pressure;BME280_temperature;BME280_humidity;BME280_pressure;Samples;Min_cycle;Max_cycle;Signal;HPM_P1;HPM_P2
2021/10/14 00:00:11;;;;;;;6.03;5.47;;;8.20;90.80;;;;;;5095326;28;20238;-72
2021/10/14 00:02:37;;;;;;;5.57;5.00;;;8.10;91.00;;;;;;5095512;28;20237;-72
2021/10/14 00:05:06;;;;;;;5.13;4.70;;;8.10;91.20;;;;;;5099823;28;20278;-71
2021/10/14 00:07:32;;;;;;;6.57;5.73;;;8.10;91.20;;;;;;5076108;28;20213;-72
2021/10/14 00:09:57;;;;;;;6.70;4.57;;;8.10;91.20;;;;;;5089296;28;20217;-71
2021/10/14 00:12:23;;;;;;;4.60;4.20;;;8.10;91.30;;;;;;5090841;28;20188;-72
2021/10/14 00:14:48;;;;;;;5.90;4.87;;;8.10;91.40;;;;;;5094269;28;20691;-72
2021/10/14 00:17:14;;;;;;;5.37;4.60;;;8.10;91.40;;;;;;5095025;28;20572;-72
2021/10/14 00:19:40;;;;;;;7.37;5.77;;;8.20;91.40;;;;;;5092682;28;20206;-71
2021/10/14 00:22:06;;;;;;;7.90;6.27;;;8.10;91.50;;;;;;5094736;28;20647;-71
2021/10/14 00:24:32;;;;;;;10.53;6.20;;;8.10;91.60;;;;;;5073139;28;20190;-71
2021/10/14 00:26:58;;;;;;;7.87;5.87;;;8.10;91.90;;;;;;5093720;28;20314;-72
2021/10/14 00:29:24;;;;;;;6.07;5.50;;;8.00;92.10;;;;;;5092465;28;20178;-72
2021/10/14 00:31:49;;;;;;;8.33;6.30;;;8.00;92.20;;;;;;5066685;28;21884;-72
2021/10/14 00:34:15;;;;;;;5.17;4.63;;;8.10;92.20;;;;;;5073818;28;20240;-72
2021/10/14 00:36:41;;;;;;;5.60;5.00;;;8.10;92.50;;;;;;5105771;28;20181;-73
2021/10/14 00:39:06;;;;;;;9.20;6.47;;;8.10;92.60;;;;;;5096548;28;20647;-71
2021/10/14 00:41:32;;;;;;;6.93;5.67;;;8.00;92.70;;;;;;5090272;28;20185;-72
2021/10/14 00:43:58;;;;;;;7.17;5.20;;;8.00;92.90;;;;;;5098124;28;20209;-71
2021/10/14 00:46:24;;;;;;;4.47;4.10;;;8.00;93.00;;;;;;5091782;28;20189;-71
2021/10/14 00:48:51;;;;;;;6.57;5.10;;;8.00;92.90;;;;;;5076666;28;20178;-71
2021/10/14 00:51:17;;;;;;;5.63;5.07;;;8.00;93.10;;;;;;5088569;28;20212;-72
2021/10/14 00:53:43;;;;;;;5.30;4.83;;;8.00;93.10;;;;;;5095726;28;20206;-71
2021/10/14 00:56:08;;;;;;;7.07;5.73;;;8.00;93.30;;;;;;5078467;28;20663;-73
2021/10/14 00:58:35;;;;;;;6.53;5.30;;;8.00;93.40;;;;;;5093125;28;20189;-73
2021/10/14 01:01:03;;;;;;;5.83;4.97;;;7.90;93.50;;;;;;5073226;28;20572;-73
2021/10/14 01:03:29;;;;;;;5.33;4.50;;;7.90;93.60;;;;;;5107445;28;20174;-73
2021/10/14 01:05:55;;;;;;;5.70;5.20;;;7.90;93.80;;;;;;5076852;28;20247;-73
2021/10/14 01:08:21;;;;;;;6.13;4.93;;;7.90;93.80;;;;;;5072367;28;20599;-73
2021/10/14 01:10:46;;;;;;;6.13;5.20;;;7.80;93.80;;;;;;5085588;28;20182;-73
2021/10/14 01:13:13;;;;;;;7.20;4.93;;;7.80;93.80;;;;;;5095551;28;20798;-73
2021/10/14 01:15:39;;;;;;;4.70;3.83;;;7.80;93.80;;;;;;5087375;28;20217;-73
2021/10/14 01:18:04;;;;;;;5.37;4.87;;;7.80;93.90;;;;;;5090453;28;20193;-73
2021/10/14 01:20:30;;;;;;;5.47;4.97;;;7.70;94.10;;;;;;5075505;28;20285;-74
2021/10/14 01:22:57;;;;;;;6.57;4.97;;;7.70;94.20;;;;;;5097734;28;20183;-73
2021/10/14 01:25:24;;;;;;;6.07;5.10;;;7.70;94.20;;;;;;5076524;28;20190;-74
2021/10/14 01:27:50;;;;;;;5.30;4.90;;;7.70;94.10;;;;;;5096112;28;20236;-72
2021/10/14 01:30:17;;;;;;;6.17;4.63;;;7.70;94.20;;;;;;5092800;28;20255;-72
2021/10/14 01:32:44;;;;;;;5.63;4.37;;;7.70;94.10;;;;;;5100709;28;20205;-71
2021/10/14 01:35:10;;;;;;;5.00;4.50;;;7.70;94.20;;;;;;5090775;28;20206;-72
2021/10/14 01:37:36;;;;;;;4.90;4.43;;;7.70;94.10;;;;;;5101775;28;20177;-71
2021/10/14 01:40:03;;;;;;;4.23;3.83;;;7.70;94.10;;;;;;5078318;28;20214;-72
2021/10/14 01:42:29;;;;;;;5.03;3.70;;;7.70;94.00;;;;;;5076621;28;20190;-72
2021/10/14 01:44:57;;;;;;;5.60;4.87;;;7.70;94.00;;;;;;5093651;28;20195;-71
2021/10/14 01:47:23;;;;;;;5.60;4.80;;;7.70;94.00;;;;;;5095038;28;20239;-72
2021/10/14 01:49:49;;;;;;;4.77;4.47;;;7.70;93.90;;;;;;5078854;28;20182;-72
2021/10/14 01:52:14;;;;;;;8.63;4.10;;;7.70;93.90;;;;;;5100292;28;20174;-72
2021/10/14 01:54:40;;;;;;;5.97;4.87;;;7.70;94.10;;;;;;5094566;28;20209;-72
2021/10/14 01:57:06;;;;;;;8.07;4.17;;;7.60;94.40;;;;;;5075929;28;20189;-72
2021/10/14 01:59:31;;;;;;;7.60;4.93;;;7.60;94.60;;;;;;5096176;28;21776;-72
2021/10/14 02:01:57;;;;;;;7.03;4.07;;;7.60;94.70;;;;;;5089412;28;20178;-72
2021/10/14 02:04:23;;;;;;;4.53;4.13;;;7.60;94.90;;;;;;5097998;28;20240;-71
2021/10/14 02:06:48;;;;;;;4.43;4.07;;;7.60;94.90;;;;;;5094078;28;20630;-71
2021/10/14 02:09:14;;;;;;;4.63;4.17;;;7.60;95.00;;;;;;5074273;28;20579;-71
2021/10/14 02:11:40;;;;;;;4.70;4.23;;;7.60;95.20;;;;;;5094552;28;20174;-71
2021/10/14 02:14:05;;;;;;;4.33;4.13;;;7.60;95.20;;;;;;5098002;28;20212;-71
2021/10/14 02:16:31;;;;;;;4.13;3.30;;;7.60;95.20;;;;;;5096758;28;20608;-71
2021/10/14 02:18:57;;;;;;;4.33;4.03;;;7.60;95.30;;;;;;5098555;28;20198;-71
2021/10/14 02:21:22;;;;;;;5.70;4.17;;;7.50;95.30;;;;;;5090336;28;20182;-72
2021/10/14 02:23:48;;;;;;;4.70;4.30;;;7.50;95.60;;;;;;5094471;28;20183;-72
2021/10/14 02:26:14;;;;;;;4.83;4.43;;;7.50;95.50;;;;;;5079446;28;20704;-72
2021/10/14 02:28:40;;;;;;;4.33;4.03;;;7.50;95.60;;;;;;5096149;28;20191;-71
2021/10/14 02:31:06;;;;;;;5.33;4.83;;;7.50;95.80;;;;;;5078998;28;20183;-72
2021/10/14 02:33:31;;;;;;;6.53;4.93;;;7.50;95.90;;;;;;5094636;28;20193;-71
2021/10/14 02:35:57;;;;;;;4.73;4.33;;;7.50;96.00;;;;;;5080763;28;20193;-72
2021/10/14 02:38:23;;;;;;;4.10;3.77;;;7.50;95.90;;;;;;5079613;28;21000;-72
2021/10/14 02:40:50;;;;;;;3.67;3.37;;;7.50;96.10;;;;;;5090951;28;20212;-72
2021/10/14 02:43:15;;;;;;;4.40;4.00;;;7.50;96.20;;;;;;5095445;28;20185;-73
2021/10/14 02:45:41;;;;;;;4.20;3.90;;;7.50;96.10;;;;;;5088558;28;20190;-74
2021/10/14 02:48:07;;;;;;;4.00;3.70;;;7.50;96.20;;;;;;5080499;28;20790;-73
2021/10/14 02:50:33;;;;;;;3.93;3.60;;;7.50;96.70;;;;;;5092806;28;20271;-71
2021/10/14 02:52:59;;;;;;;4.00;3.70;;;7.50;96.60;;;;;;5095269;28;20625;-73
2021/10/14 02:55:25;;;;;;;4.20;3.83;;;7.50;96.50;;;;;;5093752;28;20218;-73
2021/10/14 02:57:50;;;;;;;3.73;3.33;;;7.50;96.60;;;;;;5097457;28;20192;-73
2021/10/14 03:00:16;;;;;;;4.17;3.73;;;7.50;96.30;;;;;;5089351;28;20183;-74
2021/10/14 03:02:42;;;;;;;4.73;4.27;;;7.50;96.50;;;;;;5089493;28;20178;-73
2021/10/14 03:05:07;;;;;;;3.53;3.30;;;7.50;96.60;;;;;;5078189;28;20223;-73
2021/10/14 03:07:33;;;;;;;5.07;4.63;;;7.50;96.90;;;;;;5101845;28;20667;-74
2021/10/14 03:09:59;;;;;;;3.60;3.40;;;7.50;96.80;;;;;;5096084;28;20589;-73
2021/10/14 03:12:24;;;;;;;4.27;3.87;;;7.50;96.90;;;;;;5091139;28;20239;-72
2021/10/14 03:14:50;;;;;;;4.70;3.73;;;7.50;97.10;;;;;;5073795;28;20775;-71
2021/10/14 03:17:16;;;;;;;4.00;3.70;;;7.50;97.20;;;;;;5089864;28;20660;-72
2021/10/14 03:19:42;;;;;;;3.80;3.43;;;7.50;97.10;;;;;;5092247;28;20185;-72
2021/10/14 03:22:07;;;;;;;4.10;3.80;;;7.50;97.20;;;;;;5090839;28;20566;-72
2021/10/14 03:24:33;;;;;;;4.00;3.70;;;7.50;97.10;;;;;;5091077;28;20178;-71
2021/10/14 03:26:59;;;;;;;3.67;3.37;;;7.50;97.10;;;;;;5089197;28;20210;-72
2021/10/14 03:29:24;;;;;;;4.37;4.00;;;7.50;97.20;;;;;;5093689;28;20210;-72
2021/10/14 03:31:50;;;;;;;4.57;4.17;;;7.50;97.10;;;;;;5090398;28;20276;-73
2021/10/14 03:34:16;;;;;;;4.20;3.80;;;7.40;97.30;;;;;;5092118;28;20209;-72
2021/10/14 03:36:41;;;;;;;4.53;4.13;;;7.50;97.20;;;;;;5070037;28;20186;-72
2021/10/14 03:39:07;;;;;;;4.37;3.53;;;7.40;97.20;;;;;;5091038;28;20745;-72
2021/10/14 03:41:33;;;;;;;3.40;3.10;;;7.40;97.10;;;;;;5073408;28;20648;-72
2021/10/14 03:43:58;;;;;;;4.50;3.80;;;7.40;97.30;;;;;;5091223;28;20901;-73
2021/10/14 03:46:24;;;;;;;3.37;3.17;;;7.40;97.50;;;;;;5072173;28;20584;-73
2021/10/14 03:48:50;;;;;;;2.73;2.63;;;7.40;97.50;;;;;;5090612;28;20186;-71
2021/10/14 03:51:16;;;;;;;3.33;3.13;;;7.40;97.50;;;;;;5092507;28;20652;-72
2021/10/14 03:53:43;;;;;;;4.53;4.23;;;7.40;97.50;;;;;;5089353;28;20245;-72
2021/10/14 03:56:08;;;;;;;3.73;3.37;;;7.40;97.70;;;;;;5091825;28;20197;-72
2021/10/14 03:58:34;;;;;;;3.13;3.00;;;7.40;97.40;;;;;;5089502;28;20212;-72
2021/10/14 04:01:00;;;;;;;5.13;3.70;;;7.40;97.50;;;;;;5075346;28;20177;-72
2021/10/14 04:03:25;;;;;;;5.10;4.17;;;7.40;97.40;;;;;;5092183;28;20178;-73
2021/10/14 04:05:51;;;;;;;4.73;3.83;;;7.40;97.90;;;;;;5086725;28;20189;-68
2021/10/14 04:08:17;;;;;;;3.60;3.33;;;7.40;97.90;;;;;;5085264;28;20259;-69
2021/10/14 04:10:42;;;;;;;3.63;3.33;;;7.30;98.10;;;;;;5075585;28;20182;-68
2021/10/14 04:13:08;;;;;;;3.50;3.20;;;7.40;98.10;;;;;;5104188;27;20322;-68
2021/10/14 04:15:33;;;;;;;3.37;3.17;;;7.40;98.20;;;;;;5091579;28;20480;-68
2021/10/14 04:17:59;;;;;;;3.50;3.30;;;7.40;98.40;;;;;;5069842;28;20186;-68
2021/10/14 04:20:25;;;;;;;3.70;3.37;;;7.40;98.30;;;;;;5073163;28;20186;-68
2021/10/14 04:22:52;;;;;;;4.03;3.40;;;7.40;98.20;;;;;;5075883;28;20229;-68
2021/10/14 04:25:18;;;;;;;4.97;4.20;;;7.40;98.10;;;;;;5064629;28;20178;-68
2021/10/14 04:27:43;;;;;;;4.50;4.20;;;7.40;98.00;;;;;;5083529;28;20682;-71
2021/10/14 04:30:09;;;;;;;5.53;4.33;;;7.40;98.30;;;;;;5068118;28;20282;-71
2021/10/14 04:32:35;;;;;;;5.43;4.53;;;7.40;98.40;;;;;;5070929;28;20618;-71
2021/10/14 04:35:03;;;;;;;4.77;4.27;;;7.40;98.50;;;;;;5072079;28;20224;-70
2021/10/14 04:37:28;;;;;;;4.43;4.10;;;7.40;98.40;;;;;;5090997;28;20272;-70
2021/10/14 04:39:54;;;;;;;4.17;3.87;;;7.40;98.40;;;;;;5077871;28;20731;-70
2021/10/14 04:42:20;;;;;;;4.83;4.37;;;7.40;98.30;;;;;;5089477;28;20184;-70
2021/10/14 04:44:45;;;;;;;3.70;3.40;;;7.40;98.20;;;;;;5069212;28;20189;-70
2021/10/14 04:47:18;;;;;;;4.67;4.23;;;7.40;98.50;;;;;;5074759;28;20264;-71
2021/10/14 04:49:44;;;;;;;4.87;4.03;;;7.40;98.30;;;;;;5071887;28;20184;-70
2021/10/14 04:52:09;;;;;;;4.53;4.00;;;7.40;98.20;;;;;;5092965;28;20626;-70
2021/10/14 04:54:35;;;;;;;6.40;4.27;;;7.40;98.10;;;;;;5089472;28;20214;-70
2021/10/14 04:57:01;;;;;;;4.80;4.37;;;7.40;98.40;;;;;;5079182;28;20408;-70
2021/10/14 04:59:26;;;;;;;5.60;4.87;;;7.30;98.40;;;;;;5117995;27;20675;-70
2021/10/14 05:01:52;;;;;;;4.30;3.87;;;7.40;98.40;;;;;;5072042;28;20189;-70
2021/10/14 05:04:18;;;;;;;4.43;4.13;;;7.40;98.40;;;;;;5091513;28;20800;-70
2021/10/14 05:06:43;;;;;;;6.70;4.47;;;7.40;98.40;;;;;;5093072;28;20182;-74
2021/10/14 05:09:09;;;;;;;4.43;3.93;;;7.30;98.50;;;;;;5076724;28;20174;-71
2021/10/14 05:11:35;;;;;;;6.83;4.80;;;7.30;98.50;;;;;;5096468;28;20255;-72
2021/10/14 05:14:00;;;;;;;4.53;4.13;;;7.30;98.50;;;;;;5089412;28;20212;-73
2021/10/14 05:16:26;;;;;;;5.30;4.90;;;7.30;98.50;;;;;;5095503;28;20193;-74
2021/10/14 05:18:52;;;;;;;5.40;4.50;;;7.30;98.50;;;;;;5088909;28;20178;-74
2021/10/14 05:21:17;;;;;;;4.17;3.87;;;7.30;98.50;;;;;;5095586;28;20204;-74
2021/10/14 05:23:43;;;;;;;5.00;4.47;;;7.30;98.50;;;;;;5091571;28;20212;-74
2021/10/14 05:26:09;;;;;;;3.87;3.57;;;7.40;98.50;;;;;;5079381;28;20185;-73
2021/10/14 05:28:35;;;;;;;4.33;3.90;;;7.40;98.50;;;;;;5091675;28;20179;-73
2021/10/14 05:31:00;;;;;;;3.97;2.87;;;7.40;98.00;;;;;;5079260;28;20184;-69
2021/10/14 05:33:26;;;;;;;3.17;2.87;;;7.30;97.70;;;;;;5076078;28;20281;-69
2021/10/14 05:35:52;;;;;;;4.60;3.83;;;7.40;97.70;;;;;;5077691;28;20707;-71
2021/10/14 05:38:17;;;;;;;4.67;4.10;;;7.40;97.70;;;;;;5099922;28;20819;-72
2021/10/14 05:40:45;;;;;;;3.47;3.27;;;7.40;97.60;;;;;;5099146;28;20177;-73
2021/10/14 05:43:11;;;;;;;3.20;2.83;;;7.50;97.40;;;;;;5073129;28;20342;-72
2021/10/14 05:45:40;;;;;;;2.57;2.47;;;7.50;97.10;;;;;;5079657;28;20229;-71
2021/10/14 05:48:06;;;;;;;3.13;2.37;;;7.60;96.80;;;;;;5093746;28;20260;-72
2021/10/14 05:50:31;;;;;;;3.37;3.07;;;7.60;96.80;;;;;;5117186;27;20649;-72
2021/10/14 05:52:57;;;;;;;3.73;2.67;;;7.60;96.40;;;;;;5079052;28;20234;-72
2021/10/14 05:55:23;;;;;;;2.13;2.03;;;7.60;96.20;;;;;;5078014;28;20211;-72
2021/10/14 05:57:49;;;;;;;2.80;2.70;;;7.60;96.40;;;;;;5076412;28;20174;-72
2021/10/14 06:00:15;;;;;;;1.77;1.77;;;7.70;96.10;;;;;;5100806;28;20231;-72
2021/10/14 06:02:41;;;;;;;1.70;1.70;;;7.60;95.40;;;;;;5093282;28;20667;-72
2021/10/14 06:05:07;;;;;;;2.00;1.90;;;7.60;95.00;;;;;;5096924;28;20186;-73
2021/10/14 06:07:32;;;;;;;2.40;2.20;;;7.60;95.30;;;;;;5095087;28;20210;-72
2021/10/14 06:09:58;;;;;;;2.13;2.03;;;7.60;95.70;;;;;;5091965;28;20232;-72
2021/10/14 06:12:24;;;;;;;1.90;1.80;;;7.60;96.40;;;;;;5093540;28;20190;-73
2021/10/14 06:14:49;;;;;;;1.67;1.47;;;7.60;96.60;;;;;;5098406;28;20221;-72
2021/10/14 06:17:15;;;;;;;1.87;1.80;;;7.60;96.60;;;;;;5095659;28;20755;-72
2021/10/14 06:19:41;;;;;;;1.33;1.33;;;7.70;96.40;;;;;;5095101;28;20182;-73
2021/10/14 06:22:06;;;;;;;1.50;1.47;;;7.70;96.20;;;;;;5095823;28;20193;-73
2021/10/14 06:24:32;;;;;;;1.50;1.43;;;7.70;95.70;;;;;;5097719;28;20741;-73
2021/10/14 06:26:58;;;;;;;1.50;1.50;;;7.70;95.50;;;;;;5094788;28;20573;-74
2021/10/14 06:29:23;;;;;;;1.43;1.37;;;7.70;95.70;;;;;;5105010;28;20185;-73
2021/10/14 06:31:49;;;;;;;1.57;1.47;;;7.70;95.70;;;;;;5098180;28;20212;-72
2021/10/14 06:34:15;;;;;;;1.77;1.73;;;7.70;95.60;;;;;;5091084;28;20214;-72
2021/10/14 06:36:40;;;;;;;1.33;1.23;;;7.70;95.60;;;;;;5089997;28;20278;-72
2021/10/14 06:39:06;;;;;;;1.23;1.23;;;7.70;95.50;;;;;;5093627;28;20479;-73
2021/10/14 06:41:32;;;;;;;1.43;1.37;;;7.70;95.20;;;;;;5075136;28;20273;-72
2021/10/14 06:43:58;;;;;;;1.87;1.77;;;7.70;95.40;;;;;;5093534;28;20186;-73
2021/10/14 06:46:24;;;;;;;0.97;0.97;;;7.70;95.70;;;;;;5095191;28;20271;-72
2021/10/14 06:48:50;;;;;;;1.33;1.13;;;7.70;95.80;;;;;;5089981;28;20227;-73
2021/10/14 06:51:15;;;;;;;2.23;2.03;;;7.70;95.90;;;;;;5093887;28;20265;-73
2021/10/14 06:53:41;;;;;;;1.57;1.57;;;7.70;96.00;;;;;;5087853;28;20186;-73
2021/10/14 06:56:07;;;;;;;1.17;1.17;;;7.60;96.30;;;;;;5085002;28;20182;-72
2021/10/14 06:58:32;;;;;;;0.90;0.90;;;7.60;96.00;;;;;;5092706;28;20204;-73
2021/10/14 07:00:58;;;;;;;1.07;1.07;;;7.60;96.00;;;;;;5088882;28;20182;-72
2021/10/14 07:03:23;;;;;;;1.27;1.27;;;7.60;95.40;;;;;;5093404;28;20190;-71
2021/10/14 07:05:49;;;;;;;1.43;0.70;;;7.50;95.30;;;;;;5089298;28;20659;-71
2021/10/14 07:08:17;;;;;;;0.90;0.90;;;7.50;95.50;;;;;;5094341;28;20186;-72
2021/10/14 07:10:46;;;;;;;1.13;1.03;;;7.50;95.50;;;;;;5091200;28;20240;-72
2021/10/14 07:13:15;;;;;;;3.20;1.40;;;7.50;95.40;;;;;;5074664;28;20186;-73
2021/10/14 07:15:41;;;;;;;1.73;1.30;;;;;;;;;;5097221;28;20664;-71
2021/10/14 07:18:08;;;;;;;1.20;1.20;;;7.50;95.30;;;;;;5087851;28;20243;-72
2021/10/14 07:20:35;;;;;;;1.20;1.20;;;7.50;95.50;;;;;;5095420;28;20182;-71
2021/10/14 07:23:08;;;;;;;1.60;1.00;;;7.50;96.00;;;;;;5095553;28;20233;-72
2021/10/14 07:25:34;;;;;;;0.80;0.80;;;7.50;95.50;;;;;;5070608;28;20190;-73
2021/10/14 07:28:00;;;;;;;0.77;0.77;;;7.50;95.00;;;;;;5091026;28;20253;-73
2021/10/14 07:30:26;;;;;;;0.93;0.53;;;7.50;94.70;;;;;;5071442;28;20174;-73
2021/10/14 07:32:51;;;;;;;0.70;0.70;;;7.40;94.70;;;;;;5094233;28;20178;-72
2021/10/14 07:35:20;;;;;;;0.70;0.70;;;7.50;95.10;;;;;;5091195;28;20206;-73
2021/10/14 07:37:46;;;;;;;0.90;0.90;;;7.40;95.20;;;;;;5071786;28;20702;-71
2021/10/14 07:40:12;;;;;;;0.77;0.73;;;7.40;95.10;;;;;;5074921;28;20727;-72
2021/10/14 07:42:38;;;;;;;0.63;0.63;;;7.40;95.10;;;;;;5095410;28;20192;-72
2021/10/14 07:45:04;;;;;;;1.30;1.20;;;7.50;95.30;;;;;;5090442;28;20190;-72
2021/10/14 07:47:30;;;;;;;1.20;1.00;;;7.50;95.50;;;;;;5098164;28;20728;-72
2021/10/14 07:49:56;;;;;;;1.20;0.90;;;7.40;95.10;;;;;;5095825;28;20213;-72
2021/10/14 07:52:22;;;;;;;0.50;0.50;;;7.50;95.30;;;;;;5091784;28;20173;-72
2021/10/14 07:54:50;;;;;;;0.80;0.80;;;7.50;95.40;;;;;;5077295;28;20729;-72
2021/10/14 07:57:16;;;;;;;0.80;0.80;;;7.50;95.10;;;;;;5100005;28;20343;-72
2021/10/14 07:59:42;;;;;;;0.70;0.70;;;7.50;94.80;;;;;;5092617;28;20623;-73
2021/10/14 08:02:08;;;;;;;0.80;0.80;;;7.40;94.80;;;;;;5092038;28;20231;-72
2021/10/14 08:04:34;;;;;;;0.90;0.90;;;7.40;94.80;;;;;;5093602;28;20629;-72
2021/10/14 08:06:59;;;;;;;0.73;0.73;;;7.40;94.80;;;;;;5092532;28;20546;-72
2021/10/14 08:09:25;;;;;;;0.80;0.80;;;7.40;95.00;;;;;;5095794;28;20202;-72
2021/10/14 08:11:51;;;;;;;0.90;0.90;;;7.40;95.30;;;;;;5091527;28;20177;-71
2021/10/14 08:14:16;;;;;;;0.67;0.67;;;7.40;95.20;;;;;;5096501;28;20248;-71
2021/10/14 08:16:42;;;;;;;0.87;0.87;;;7.40;94.90;;;;;;5077842;28;20230;-71
2021/10/14 08:19:08;;;;;;;1.37;0.80;;;7.30;94.40;;;;;;5072308;28;20182;-71
2021/10/14 08:21:34;;;;;;;0.47;0.43;;;7.30;94.40;;;;;;5071269;28;20192;-71
2021/10/14 08:24:00;;;;;;;0.50;0.50;;;7.20;94.70;;;;;;5086711;28;20201;-72
2021/10/14 08:26:25;;;;;;;0.30;0.30;;;7.20;94.70;;;;;;5071103;28;20193;-72
2021/10/14 08:28:51;;;;;;;0.40;0.40;;;7.20;94.40;;;;;;5073139;28;20175;-72
2021/10/14 08:31:17;;;;;;;0.40;0.40;;;7.20;94.50;;;;;;5072623;28;20178;-71
2021/10/14 08:33:42;;;;;;;0.30;0.30;;;7.20;94.20;;;;;;5083147;28;20285;-71
2021/10/14 08:36:08;;;;;;;0.17;0.17;;;;;;;;;;5092065;28;20200;-72
2021/10/14 08:38:35;;;;;;;0.20;0.20;;;;;;;;;;5086510;28;20799;-72
2021/10/14 08:41:01;;;;;;;0.20;0.20;;;;;;;;;;5085832;28;20182;-72
2021/10/14 08:43:31;;;;;;;1.73;0.20;;;7.10;94.20;;;;;;5087354;28;20265;-72
2021/10/14 08:45:57;;;;;;;3.80;1.07;;;7.00;94.50;;;;;;5095730;28;20261;-72
2021/10/14 08:48:24;;;;;;;0.20;0.20;;;7.00;94.70;;;;;;5089535;28;20186;-72
2021/10/14 08:50:50;;;;;;;2.13;0.73;;;;;;;;;;5070048;28;20225;-73
2021/10/14 08:53:16;;;;;;;0.20;0.20;;;7.00;95.00;;;;;;5071503;28;20178;-72
2021/10/14 08:55:42;;;;;;;0.20;0.20;;;7.00;94.70;;;;;;5083505;28;20213;-72
2021/10/14 08:58:10;;;;;;;0.20;0.20;;;7.00;94.50;;;;;;5071457;28;20775;-72
2021/10/14 09:00:38;;;;;;;0.20;0.20;;;7.00;92.70;;;;;;5070979;28;20240;-72
2021/10/14 09:03:25;;;;;;;0.10;0.10;;;6.80;91.50;;;;;;5074778;28;20202;-72
2021/10/14 09:05:51;;;;;;;1.33;1.23;;;6.60;92.10;;;;;;5071866;28;20803;-72
2021/10/14 09:08:39;;;;;;;0.20;0.20;;;6.50;92.20;;;;;;5075652;28;20692;-72
2021/10/14 09:11:15;;;;;;;0.20;0.20;;;6.60;92.10;;;;;;5078206;28;20707;-72
2021/10/14 09:13:53;;;;;;;0.30;0.30;;;6.50;92.40;;;;;;5071575;28;20188;-71
2021/10/14 09:16:29;;;;;;;0.83;0.57;;;6.50;92.90;;;;;;5077145;28;20969;-72
2021/10/14 09:19:13;;;;;;;0.20;0.20;;;6.50;92.90;;;;;;5073751;28;20247;-73
2021/10/14 09:21:48;;;;;;;0.27;0.27;;;6.40;93.00;;;;;;5071931;28;20186;-73
2021/10/14 09:24:46;;;;;;;0.50;0.37;;;6.40;93.10;;;;;;5071684;28;20209;-72
2021/10/14 09:27:16;;;;;;;0.33;0.33;;;6.40;93.60;;;;;;5012014;28;20193;-72
2021/10/14 09:29:42;;;;;;;0.50;0.30;;;6.40;94.10;;;;;;5027824;28;20193;-72
2021/10/14 09:32:20;;;;;;;0.20;0.20;;;6.50;94.10;;;;;;5009302;28;20191;-72
2021/10/14 09:34:48;;;;;;;1.13;0.40;;;6.50;93.80;;;;;;5025861;28;20309;-72
2021/10/14 09:37:14;;;;;;;0.33;0.33;;;6.40;92.80;;;;;;5026705;28;20704;-72
2021/10/14 09:40:12;;;;;;;0.20;0.20;;;6.30;92.40;;;;;;5002698;28;20191;-72
2021/10/14 09:42:57;;;;;;;0.30;0.30;;;6.10;93.70;;;;;;5024264;28;20201;-72
2021/10/14 09:45:27;;;;;;;0.30;0.30;;;6.20;93.70;;;;;;5026602;28;20177;-72
2021/10/14 09:48:05;;;;;;;13.87;3.43;;;6.10;93.30;;;;;;5007288;28;20212;-72
2021/10/14 09:50:37;;;;;;;0.30;0.30;;;6.10;93.30;;;;;;5014292;28;20960;-72
2021/10/14 09:53:05;;;;;;;0.33;0.33;;;6.00;93.50;;;;;;5006799;28;20185;-72
2021/10/14 09:55:31;;;;;;;0.60;0.30;;;6.00;93.50;;;;;;5010757;28;21044;-73
2021/10/14 09:57:57;;;;;;;0.60;0.60;;;6.00;93.30;;;;;;5010565;28;20263;-72
2021/10/14 10:00:23;;;;;;;1.30;0.30;;;5.90;93.30;;;;;;5031289;28;20284;-72
2021/10/14 10:02:52;;;;;;;0.40;0.40;;;5.90;93.60;;;;;;5068326;27;20311;-72
2021/10/14 10:05:18;;;;;;;0.70;0.40;;;5.90;93.60;;;;;;5090878;28;20193;-72
2021/10/14 10:07:48;;;;;;;0.30;0.30;;;5.80;93.70;;;;;;5089044;28;20182;-72
2021/10/14 10:10:21;;;;;;;0.50;0.50;;;5.80;93.60;;;;;;5082771;28;20185;-72
2021/10/14 10:12:47;;;;;;;1.50;1.40;;;5.80;93.90;;;;;;5072476;28;20212;-72
2021/10/14 10:15:13;;;;;;;1.17;0.93;;;5.80;93.90;;;;;;5076322;28;20216;-72
2021/10/14 10:17:48;;;;;;;0.70;0.70;;;5.70;94.50;;;;;;5071007;28;20182;-73
2021/10/14 10:20:37;;;;;;;1.03;0.57;;;5.70;94.40;;;;;;5092961;28;20197;-72
2021/10/14 10:23:03;;;;;;;1.20;1.07;;;5.70;94.40;;;;;;5085024;28;20633;-70
2021/10/14 10:25:31;;;;;;;0.90;0.90;;;5.60;95.30;;;;;;5095697;28;20206;-71
2021/10/14 10:27:58;;;;;;;1.10;1.10;;;5.70;95.40;;;;;;5077009;28;20589;-71
2021/10/14 10:30:32;;;;;;;1.20;1.20;;;5.70;95.40;;;;;;5075912;28;20210;-71
2021/10/14 10:32:59;;;;;;;0.53;0.53;;;5.70;95.70;;;;;;5091064;28;20184;-71
2021/10/14 10:35:46;;;;;;;1.20;0.70;;;5.80;95.60;;;;;;5072672;28;20774;-71
2021/10/14 10:38:20;;;;;;;0.60;0.60;;;5.80;95.00;;;;;;5105776;27;20247;-72
2021/10/14 10:40:49;;;;;;;7.40;3.50;;;5.80;95.00;;;;;;5091543;28;20185;-71
2021/10/14 10:43:21;;;;;;;3.43;1.40;;;5.80;95.00;;;;;;5092905;28;20238;-71
2021/10/14 10:45:50;;;;;;;5.50;3.00;;;;;;;;;;5075496;28;20759;-71
2021/10/14 10:48:20;;;;;;;0.90;0.90;;;6.00;95.30;;;;;;5075692;28;20846;-71
2021/10/14 10:50:51;;;;;;;0.73;0.57;;;6.00;95.30;;;;;;5093881;28;20178;-72
2021/10/14 10:53:36;;;;;;;0.60;0.60;;;6.00;95.40;;;;;;5070122;28;20955;-72
2021/10/14 10:56:02;;;;;;;0.50;0.50;;;6.00;95.20;;;;;;5074950;28;20183;-71
2021/10/14 10:58:28;;;;;;;1.13;0.50;;;6.00;95.30;;;;;;5090095;28;20571;-71
2021/10/14 11:00:54;;;;;;;1.93;0.90;;;;;;;;;;5081210;28;20188;-71
2021/10/14 11:03:22;;;;;;;0.90;0.90;;;6.10;94.70;;;;;;5072457;28;20178;-71
2021/10/14 11:05:54;;;;;;;1.00;0.97;;;;;;;;;;5080650;28;20450;-71
2021/10/14 11:08:22;;;;;;;0.30;0.30;;;;;;;;;;5070241;28;20190;-73
2021/10/14 11:10:53;;;;;;;0.77;0.73;;;6.20;94.40;;;;;;5078009;28;20181;-71
2021/10/14 11:13:21;;;;;;;0.63;0.53;;;6.20;94.40;;;;;;5092422;28;20193;-71
2021/10/14 11:15:54;;;;;;;0.83;0.83;;;6.20;94.90;;;;;;5068711;28;20185;-72
2021/10/14 11:18:26;;;;;;;0.60;0.60;;;6.20;95.30;;;;;;5089535;28;20195;-71
2021/10/14 11:21:03;;;;;;;0.80;0.80;;;6.30;95.40;;;;;;5074025;28;20263;-72
2021/10/14 11:23:31;;;;;;;0.57;0.57;;;6.30;95.00;;;;;;5071776;28;20182;-71
2021/10/14 11:26:04;;;;;;;0.50;0.50;;;6.40;94.90;;;;;;5073043;28;20214;-71
2021/10/14 11:28:31;;;;;;;0.50;0.50;;;6.40;94.40;;;;;;5074585;28;20173;-71
2021/10/14 11:31:00;;;;;;;0.70;0.70;;;6.40;94.20;;;;;;5083712;28;20185;-73
2021/10/14 11:33:35;;;;;;;0.50;0.50;;;6.40;94.30;;;;;;5070289;28;20678;-71
2021/10/14 11:36:05;;;;;;;0.60;0.60;;;6.40;94.60;;;;;;5071892;28;21886;-70
2021/10/14 11:38:32;;;;;;;0.60;0.60;;;6.50;94.90;;;;;;5071511;28;20189;-71
2021/10/14 11:40:59;;;;;;;0.50;0.50;;;6.50;94.80;;;;;;5073243;28;20185;-72
2021/10/14 11:43:30;;;;;;;0.70;0.70;;;6.60;94.60;;;;;;5089032;28;20182;-72
2021/10/14 11:45:58;;;;;;;0.53;0.53;;;6.60;94.10;;;;;;5075492;28;20219;-72
2021/10/14 11:48:29;;;;;;;0.60;0.60;;;6.60;93.50;;;;;;5077679;28;20191;-73
2021/10/14 11:51:06;;;;;;;0.50;0.50;;;6.60;93.10;;;;;;5067421;28;20193;-72
2021/10/14 11:53:33;;;;;;;0.87;0.40;;;6.60;92.80;;;;;;5071614;28;20236;-73
2021/10/14 11:56:01;;;;;;;0.40;0.40;;;6.60;93.10;;;;;;5091029;28;20197;-73
2021/10/14 11:58:26;;;;;;;0.60;0.60;;;6.60;93.50;;;;;;5069047;28;20224;-71
2021/10/14 12:01:02;;;;;;;0.50;0.50;;;6.60;93.70;;;;;;5090868;28;20897;-71
2021/10/14 12:03:28;;;;;;;0.40;0.40;;;6.60;94.10;;;;;;5090384;28;20204;-69
2021/10/14 12:05:54;;;;;;;0.30;0.30;;;6.60;93.50;;;;;;5091577;28;20255;-70
2021/10/14 12:08:20;;;;;;;0.33;0.33;;;6.60;93.30;;;;;;5072690;28;20231;-72
2021/10/14 12:10:54;;;;;;;0.50;0.50;;;6.60;93.60;;;;;;5071537;28;20663;-71
2021/10/14 12:13:25;;;;;;;0.80;0.80;;;6.60;93.20;;;;;;5097833;28;20186;-71
2021/10/14 12:15:50;;;;;;;0.53;0.53;;;6.60;92.70;;;;;;5092571;28;20181;-70
2021/10/14 12:18:29;;;;;;;0.50;0.50;;;6.60;92.60;;;;;;5093817;28;20182;-71
2021/10/14 12:20:55;;;;;;;0.60;0.60;;;6.60;92.10;;;;;;5095944;28;20720;-71
2021/10/14 12:23:28;;;;;;;0.47;0.47;;;6.60;92.40;;;;;;5098300;28;20182;-71
2021/10/14 12:26:09;;;;;;;0.53;0.53;;;6.60;92.70;;;;;;5089610;28;20300;-71
2021/10/14 12:28:35;;;;;;;1.27;0.60;;;6.60;92.80;;;;;;5072904;28;20182;-70
2021/10/14 12:31:12;;;;;;;4.43;0.70;;;6.60;93.20;;;;;;5088348;28;20228;-71
2021/10/14 12:33:38;;;;;;;0.50;0.50;;;6.60;92.70;;;;;;5073520;28;20285;-71
2021/10/14 12:36:04;;;;;;;0.80;0.40;;;6.60;92.50;;;;;;5069480;28;20837;-70
2021/10/14 12:38:40;;;;;;;0.70;0.70;;;6.60;92.80;;;;;;5091132;28;20196;-71
2021/10/14 12:41:13;;;;;;;0.80;0.80;;;6.60;93.30;;;;;;5077282;28;20185;-70
2021/10/14 12:43:55;;;;;;;3.10;0.70;;;6.60;93.40;;;;;;5072746;28;20283;-69
2021/10/14 12:51:45;;;;;;;1.33;1.10;;;6.40;93.70;;;;;;5041289;28;20261;-72
2021/10/14 12:54:20;;;;;;;0.80;0.80;;;6.40;93.50;;;;;;5042650;28;21102;-72
2021/10/14 12:56:48;;;;;;;0.80;0.80;;;6.40;93.60;;;;;;5043242;28;20175;-71
2021/10/14 12:59:16;;;;;;;0.70;0.70;;;6.30;93.10;;;;;;5042995;28;20241;-71
2021/10/14 13:01:45;;;;;;;0.80;0.80;;;6.30;93.10;;;;;;5042629;28;20297;-72
2021/10/14 13:04:11;;;;;;;0.70;0.70;;;6.20;93.40;;;;;;5025211;28;20378;-72
2021/10/14 13:06:37;;;;;;;2.20;0.80;;;6.20;93.40;;;;;;5025070;28;20645;-69